createdAt,value
2019-04-03T00:00:41.044Z,99131.59
2019-04-03T00:01:45.502Z,99129.94
2019-04-03T00:02:49.728Z,99127.13
2019-04-03T00:03:53.840Z,99122.08
2019-04-03T00:04:58.007Z,99119.52
2019-04-03T00:06:02.239Z,99117.86
2019-04-03T00:07:06.433Z,99114.22
2019-04-03T00:08:10.592Z,99115.05
2019-04-03T00:09:14.779Z,99109.76
2019-04-03T00:10:18.947Z,99110.92
2019-04-03T00:11:24.751Z,99114.95
2019-04-03T00:12:28.954Z,99109.41
2019-04-03T00:13:33.116Z,99108.67
2019-04-03T00:14:37.544Z,99113.53
2019-04-03T00:15:42.792Z,99116.97
2019-04-03T00:16:47.570Z,99113.67
2019-04-03T00:17:51.825Z,99118.13
2019-04-03T00:18:55.991Z,99114.16
2019-04-03T00:20:00.180Z,99107.14
2019-04-03T00:21:04.345Z,99109.36
2019-04-03T00:22:08.651Z,99106.73
2019-04-03T00:23:12.899Z,99110.12
2019-04-03T00:24:17.055Z,99104.92
2019-04-03T00:25:22.320Z,99108.64
2019-04-03T00:26:30.244Z,99101.43
2019-04-03T00:27:33.461Z,99101.87
2019-04-03T00:28:37.733Z,99108.08
2019-04-03T00:29:41.895Z,99105.47
2019-04-03T00:30:46.401Z,99105.14
2019-04-03T00:31:53.053Z,99103.00
2019-04-03T00:32:56.555Z,99099.73
2019-04-03T00:34:00.883Z,99104.81
2019-04-03T00:35:09.074Z,99104.81
2019-04-03T00:36:13.328Z,99102.67
2019-04-03T00:37:17.563Z,99105.06
2019-04-03T00:38:23.981Z,99108.78
2019-04-03T00:39:27.774Z,99106.22
2019-04-03T00:40:32.212Z,99106.72
2019-04-03T00:41:36.434Z,99101.80
2019-04-03T00:42:40.548Z,99106.38
2019-04-03T00:43:44.857Z,99112.04
2019-04-03T00:44:49.004Z,99113.81
2019-04-03T00:45:54.536Z,99111.01
2019-04-03T00:46:59.085Z,99107.45
2019-04-03T00:48:03.208Z,99109.77
2019-04-03T00:49:07.441Z,99115.89
2019-04-03T00:50:11.610Z,99110.55
2019-04-03T00:51:15.777Z,99109.95
2019-04-03T00:52:20.049Z,99118.73
2019-04-03T00:53:24.352Z,99109.30
2019-04-03T00:54:30.880Z,99110.48
2019-04-03T00:55:34.511Z,99105.00
2019-04-03T00:56:38.680Z,99111.06
2019-04-03T00:57:42.847Z,99109.55
2019-04-03T00:58:47.012Z,99104.83
2019-04-03T00:59:51.273Z,99108.89
2019-04-03T01:00:56.333Z,99106.33
2019-04-03T01:02:01.054Z,99109.06
2019-04-03T01:03:06.031Z,99107.08
2019-04-03T01:04:10.227Z,99106.70
2019-04-03T01:05:14.462Z,99112.98
2019-04-03T01:06:18.625Z,99117.37
2019-04-03T01:07:22.860Z,99115.59
2019-04-03T01:08:29.061Z,99110.72
2019-04-03T01:09:32.931Z,99110.22
2019-04-03T01:10:37.171Z,99108.87
2019-04-03T01:11:41.335Z,99114.19
2019-04-03T01:12:45.506Z,99104.89
2019-04-03T01:13:50.097Z,99103.91
2019-04-03T01:14:54.294Z,99111.95
2019-04-03T01:15:58.460Z,99104.06
2019-04-03T01:17:04.414Z,99103.52
2019-04-03T01:18:08.918Z,99100.72
2019-04-03T01:19:13.083Z,99097.33
2019-04-03T01:20:17.252Z,99091.64
2019-04-03T01:21:21.420Z,99092.67
2019-04-03T01:22:26.085Z,99092.84
2019-04-03T01:23:30.417Z,99093.00
2019-04-03T01:24:34.681Z,99094.82
2019-04-03T01:25:39.692Z,99090.53
2019-04-03T01:26:44.405Z,99085.70
2019-04-03T01:27:48.613Z,99083.00
2019-04-03T01:28:52.851Z,99087.61
2019-04-03T01:29:57.100Z,99083.09
2019-04-03T01:31:01.260Z,99078.88
2019-04-03T01:32:05.834Z,99078.86
2019-04-03T01:33:10.072Z,99081.59
2019-04-03T01:34:15.646Z,99076.43
2019-04-03T01:35:20.205Z,99082.29
2019-04-03T01:36:24.435Z,99076.33
2019-04-03T01:37:28.656Z,99077.01
2019-04-03T01:38:32.947Z,99077.34
2019-04-03T01:39:37.187Z,99076.47
2019-04-03T01:40:41.351Z,99065.76
2019-04-03T01:41:45.812Z,99073.27
2019-04-03T01:42:52.252Z,99063.20
2019-04-03T01:43:55.952Z,99061.05
2019-04-03T01:45:00.115Z,99054.14
2019-04-03T01:46:04.978Z,99054.30
2019-04-03T01:47:09.232Z,99047.21
2019-04-03T01:48:15.921Z,99042.29
2019-04-03T01:49:20.147Z,99045.63
2019-04-03T01:50:24.540Z,99033.12
2019-04-03T01:51:29.705Z,99032.72
2019-04-03T01:52:35.688Z,99037.64
2019-04-03T01:53:39.854Z,99032.72
2019-04-03T01:54:45.813Z,99037.97
2019-04-03T01:55:50.096Z,99044.48
2019-04-03T01:56:54.623Z,99040.20
2019-04-03T01:57:58.889Z,99045.30
2019-04-03T01:59:06.096Z,99041.93
2019-04-03T02:00:09.556Z,99042.18
2019-04-03T02:01:13.797Z,99039.77
2019-04-03T02:02:17.961Z,99041.09
2019-04-03T02:03:22.265Z,99038.36
2019-04-03T02:04:26.497Z,99037.96
2019-04-03T02:05:30.671Z,99040.83
2019-04-03T02:06:34.913Z,99038.31
2019-04-03T02:07:39.078Z,99039.95
2019-04-03T02:08:44.861Z,99043.78
2019-04-03T02:09:49.774Z,99043.01
2019-04-03T02:10:54.048Z,99041.61
2019-04-03T02:11:58.467Z,99042.50
2019-04-03T02:13:02.652Z,99041.80
2019-04-03T02:14:07.017Z,99047.82
2019-04-03T02:15:11.190Z,99048.48
2019-04-03T02:16:15.950Z,99055.08
2019-04-03T02:17:20.157Z,99052.88
2019-04-03T02:18:25.468Z,99043.41
2019-04-03T02:19:31.091Z,99042.70
2019-04-03T02:20:35.417Z,99045.75
2019-04-03T02:21:39.645Z,99041.34
2019-04-03T02:22:43.876Z,99043.97
2019-04-03T02:23:48.043Z,99043.08
2019-04-03T02:24:52.683Z,99046.27
2019-04-03T02:25:56.852Z,99042.76
2019-04-03T02:27:03.166Z,99036.97
2019-04-03T02:28:07.026Z,99045.38
2019-04-03T02:29:11.455Z,99046.23
2019-04-03T02:30:15.682Z,99040.52
2019-04-03T02:31:20.497Z,99037.81
2019-04-03T02:32:24.937Z,99030.38
2019-04-03T02:33:29.607Z,99036.22
2019-04-03T02:34:35.631Z,99035.89
2019-04-03T02:35:40.591Z,99036.55
2019-04-03T02:36:45.651Z,99028.75
2019-04-03T02:37:50.744Z,99031.61
2019-04-03T02:38:55.050Z,99033.42
2019-04-03T02:40:00.469Z,99026.67
2019-04-03T02:41:05.499Z,99029.92
2019-04-03T02:42:10.534Z,99023.30
2019-04-03T02:43:15.534Z,99023.45
2019-04-03T02:44:20.151Z,99020.52
2019-04-03T02:45:25.033Z,99016.70
2019-04-03T02:46:29.830Z,99010.70
2019-04-03T02:47:34.696Z,99017.92
2019-04-03T02:48:39.101Z,99015.88
2019-04-03T02:49:43.900Z,99011.59
2019-04-03T02:50:48.583Z,99019.90
2019-04-03T02:51:53.951Z,99015.05
2019-04-03T02:52:59.115Z,99007.72
2019-04-03T02:54:04.250Z,99009.30
2019-04-03T02:55:08.879Z,99019.33
2019-04-03T02:56:13.907Z,99017.02
2019-04-03T02:57:18.519Z,99016.84
2019-04-03T02:58:23.439Z,99017.09
2019-04-03T02:59:27.751Z,99020.98
2019-04-03T03:00:33.595Z,99019.69
2019-04-03T03:01:39.755Z,99026.17
2019-04-03T03:02:45.380Z,99024.77
2019-04-03T03:03:50.273Z,99024.19
2019-04-03T03:04:55.697Z,99017.42
2019-04-03T03:06:01.305Z,99024.50
2019-04-03T03:07:05.691Z,99024.19
2019-04-03T03:08:10.221Z,99029.08
2019-04-03T03:09:14.583Z,99025.77
2019-04-03T03:10:20.367Z,99026.16
2019-04-03T03:11:25.209Z,99030.70
2019-04-03T03:12:30.327Z,99031.50
2019-04-03T03:13:35.828Z,99032.08
2019-04-03T03:14:40.972Z,99027.14
2019-04-03T03:15:45.556Z,99025.89
2019-04-03T03:16:50.852Z,99024.44
2019-04-03T03:17:56.356Z,99026.75
2019-04-03T03:19:01.887Z,99025.25
2019-04-03T03:20:07.843Z,99026.90
2019-04-03T03:21:13.834Z,99028.09
2019-04-03T03:22:18.909Z,99029.31
2019-04-03T03:23:24.285Z,99028.05
2019-04-03T03:24:30.127Z,99016.31
2019-04-03T03:25:34.464Z,99010.09
2019-04-03T03:26:38.615Z,99021.73
2019-04-03T03:27:43.294Z,99020.19
2019-04-03T03:28:48.228Z,99017.67
2019-04-03T03:29:52.347Z,99017.53
2019-04-03T03:31:01.999Z,99017.53
2019-04-03T03:32:12.602Z,99015.41
2019-04-03T03:33:26.985Z,99010.33
2019-04-03T03:34:15.512Z,99010.33
2019-04-03T03:35:28.529Z,99015.23
2019-04-03T03:36:26.877Z,99010.52
2019-04-03T03:37:34.425Z,99016.88
2019-04-03T03:38:39.756Z,99012.35
2019-04-03T03:39:44.539Z,99014.33
2019-04-03T03:40:50.219Z,99009.19
2019-04-03T03:41:58.073Z,99011.09
2019-04-03T03:43:05.077Z,99003.93
2019-04-03T03:44:10.523Z,99005.21
2019-04-03T03:45:15.811Z,99004.81
2019-04-03T03:46:19.415Z,99001.11
2019-04-03T03:47:23.657Z,99001.36
2019-04-03T03:48:27.921Z,99001.36
2019-04-03T03:49:32.090Z,99001.61
2019-04-03T03:50:36.896Z,98996.08
2019-04-03T03:51:41.441Z,98998.95
2019-04-03T03:52:45.645Z,99001.76
2019-04-03T03:53:49.911Z,98995.83
2019-04-03T03:54:54.079Z,98999.95
2019-04-03T03:56:01.864Z,99003.27
2019-04-03T03:57:07.367Z,99002.36
2019-04-03T03:58:13.363Z,99005.16
2019-04-03T03:59:18.494Z,99005.70
2019-04-03T04:00:24.362Z,98991.79
2019-04-03T04:01:31.792Z,99006.72
2019-04-03T04:02:36.789Z,99006.97
2019-04-03T04:03:42.182Z,99011.67
2019-04-03T04:04:48.632Z,99006.14
2019-04-03T04:05:55.687Z,98991.96
2019-04-03T04:07:02.011Z,99009.42
2019-04-03T04:08:10.633Z,98997.17
2019-04-03T04:09:15.638Z,99010.04
2019-04-03T04:10:18.585Z,99001.70
2019-04-03T04:11:22.740Z,99004.43
2019-04-03T04:12:27.070Z,99007.69
2019-04-03T04:13:31.229Z,99001.26
2019-04-03T04:14:35.995Z,99001.70
2019-04-03T04:15:40.226Z,99002.75
2019-04-03T04:16:44.411Z,99002.79
2019-04-03T04:17:51.127Z,99007.89
2019-04-03T04:18:57.366Z,99000.78
2019-04-03T04:20:05.170Z,98991.05
2019-04-03T04:21:09.451Z,98992.38
2019-04-03T04:22:15.448Z,98993.06
2019-04-03T04:23:22.989Z,98991.09
2019-04-03T04:24:27.629Z,98991.30
2019-04-03T04:25:31.112Z,98990.47
2019-04-03T04:26:35.661Z,98992.73
2019-04-03T04:27:39.860Z,98983.20
2019-04-03T04:28:44.130Z,98990.58
2019-04-03T04:29:48.257Z,98982.17
2019-04-03T04:30:52.467Z,98983.14
2019-04-03T04:31:56.902Z,98977.79
2019-04-03T04:33:01.082Z,98978.94
2019-04-03T04:34:05.364Z,98975.81
2019-04-03T04:35:10.910Z,98969.64
2019-04-03T04:36:15.428Z,98982.82
2019-04-03T04:37:19.668Z,98978.26
2019-04-03T04:38:26.183Z,98973.16
2019-04-03T04:39:29.807Z,98977.94
2019-04-03T04:40:34.054Z,98963.60
2019-04-03T04:41:38.226Z,98965.19
2019-04-03T04:42:42.799Z,98968.12
2019-04-03T04:43:47.007Z,98963.35
2019-04-03T04:44:51.337Z,98968.31
2019-04-03T04:45:55.454Z,98971.19
2019-04-03T04:46:59.619Z,98966.01
2019-04-03T04:48:04.123Z,98960.16
2019-04-03T04:49:08.365Z,98968.38
2019-04-03T04:50:12.803Z,98965.22
2019-04-03T04:51:16.965Z,98970.97
2019-04-03T04:52:21.244Z,98976.92
2019-04-03T04:53:25.403Z,98971.33
2019-04-03T04:54:30.629Z,98969.74
2019-04-03T04:55:35.983Z,98967.69
2019-04-03T04:56:41.138Z,98960.23
2019-04-03T04:57:45.324Z,98966.98
2019-04-03T04:58:52.235Z,98967.95
2019-04-03T04:59:56.456Z,98965.28
2019-04-03T05:01:00.997Z,98965.46
2019-04-03T05:02:05.239Z,98972.36
2019-04-03T05:03:09.408Z,98965.46
2019-04-03T05:04:15.364Z,98966.80
2019-04-03T05:05:19.660Z,98956.99
2019-04-03T05:06:23.921Z,98961.52
2019-04-03T05:07:30.318Z,98965.39
2019-04-03T05:08:34.027Z,98968.48
2019-04-03T05:09:38.806Z,98967.50
2019-04-03T05:10:44.030Z,98969.64
2019-04-03T05:11:48.238Z,98969.36
2019-04-03T05:12:52.477Z,98973.84
2019-04-03T05:13:56.712Z,98972.45
2019-04-03T05:15:00.884Z,98971.30
2019-04-03T05:16:05.188Z,98969.78
2019-04-03T05:17:09.393Z,98973.27
2019-04-03T05:18:13.559Z,98970.38
2019-04-03T05:19:19.826Z,98975.78
2019-04-03T05:20:24.116Z,98955.39
2019-04-03T05:21:28.397Z,98952.74
2019-04-03T05:22:33.784Z,98943.63
2019-04-03T05:23:38.003Z,98944.01
2019-04-03T05:24:42.185Z,98940.45
2019-04-03T05:25:46.481Z,98938.16
2019-04-03T05:26:50.898Z,98949.36
2019-04-03T05:27:55.247Z,98958.01
2019-04-03T05:28:59.419Z,98959.73
2019-04-03T05:30:06.084Z,98963.61
2019-04-03T05:31:10.239Z,98956.42
2019-04-03T05:32:14.414Z,98953.15
2019-04-03T05:33:18.633Z,98944.81
2019-04-03T05:34:22.800Z,98942.84
2019-04-03T05:35:26.963Z,98946.86
2019-04-03T05:36:31.130Z,98939.99
2019-04-03T05:37:35.306Z,98945.30
2019-04-03T05:38:39.706Z,98939.70
2019-04-03T05:39:43.835Z,98947.84
2019-04-03T05:40:48.084Z,98948.58
2019-04-03T05:41:52.491Z,98949.91
2019-04-03T05:42:58.090Z,98950.23
2019-04-03T05:44:03.286Z,98952.33
2019-04-03T05:45:07.949Z,98957.55
2019-04-03T05:46:12.484Z,98963.91
2019-04-03T05:47:16.615Z,98957.67
2019-04-03T05:48:20.781Z,98949.77
2019-04-03T05:49:24.980Z,98949.52
2019-04-03T05:50:30.763Z,98951.17
2019-04-03T05:51:35.044Z,98953.69
2019-04-03T05:52:39.221Z,98955.53
2019-04-03T05:53:43.429Z,98949.27
2019-04-03T05:54:47.759Z,98952.20
2019-04-03T05:55:52.033Z,98951.70
2019-04-03T05:56:56.428Z,98956.66
2019-04-03T05:58:00.847Z,98960.92
2019-04-03T05:59:04.989Z,98957.29
2019-04-03T06:00:09.190Z,98951.95
2019-04-03T06:01:13.465Z,98953.53
2019-04-03T06:02:20.418Z,98958.05
2019-04-03T06:03:37.686Z,98949.78
2019-04-03T06:04:29.404Z,98956.56
2019-04-03T06:05:34.875Z,98954.91
2019-04-03T06:06:38.953Z,98956.81
2019-04-03T06:07:43.141Z,98957.80
2019-04-03T06:08:47.468Z,98959.32
2019-04-03T06:09:51.904Z,98952.28
2019-04-03T06:10:57.489Z,98956.77
2019-04-03T06:12:01.654Z,98949.34
2019-04-03T06:13:06.315Z,98953.86
2019-04-03T06:14:10.628Z,98953.34
2019-04-03T06:15:14.809Z,98955.38
2019-04-03T06:16:19.081Z,98955.98
2019-04-03T06:17:23.518Z,98950.97
2019-04-03T06:18:29.764Z,98955.67
2019-04-03T06:19:35.468Z,98955.06
2019-04-03T06:20:39.784Z,98952.62
2019-04-03T06:21:46.240Z,98948.99
2019-04-03T06:22:51.070Z,98954.14
2019-04-03T06:23:56.460Z,98953.06
2019-04-03T06:25:00.624Z,98952.42
2019-04-03T06:26:05.047Z,98950.77
2019-04-03T06:27:10.364Z,98957.64
2019-04-03T06:28:14.797Z,98954.63
2019-04-03T06:29:19.658Z,98949.98
2019-04-03T06:30:24.996Z,98951.02
2019-04-03T06:31:29.960Z,98948.17
2019-04-03T06:32:34.301Z,98945.05
2019-04-03T06:33:38.460Z,98948.52
2019-04-03T06:34:44.547Z,98938.41
2019-04-03T06:35:48.786Z,98938.66
2019-04-03T06:36:52.967Z,98934.09
2019-04-03T06:37:57.195Z,98931.80
2019-04-03T06:39:01.484Z,98936.88
2019-04-03T06:40:09.008Z,98936.72
2019-04-03T06:41:13.174Z,98935.58
2019-04-03T06:42:17.447Z,98938.30
2019-04-03T06:43:21.649Z,98939.09
2019-04-03T06:44:26.205Z,98940.94
2019-04-03T06:45:30.363Z,98928.55
2019-04-03T06:46:34.614Z,98928.55
2019-04-03T06:47:39.007Z,98937.23
2019-04-03T06:48:43.180Z,98929.69
2019-04-03T06:49:48.823Z,98930.17
2019-04-03T06:50:52.989Z,98932.33
2019-04-03T06:51:57.156Z,98946.45
2019-04-03T06:53:01.348Z,98932.91
2019-04-03T06:54:08.963Z,98937.87
2019-04-03T06:55:13.127Z,98936.66
2019-04-03T06:56:18.172Z,98936.08
2019-04-03T06:57:22.364Z,98934.68
2019-04-03T06:58:36.937Z,98936.33
2019-04-03T06:59:32.663Z,98940.66
2019-04-03T07:00:36.840Z,98940.56
2019-04-03T07:01:41.055Z,98939.22
2019-04-03T07:02:45.222Z,98939.22
2019-04-03T07:03:49.434Z,98937.48
2019-04-03T07:04:53.598Z,98936.08
2019-04-03T07:05:57.832Z,98935.45
2019-04-03T07:07:02.228Z,98922.41
2019-04-03T07:08:06.448Z,98931.38
2019-04-03T07:09:21.679Z,98931.95
2019-04-03T07:10:25.085Z,98935.83
2019-04-03T07:11:24.044Z,98935.28
2019-04-03T07:12:29.447Z,98936.44
2019-04-03T07:13:33.601Z,98942.09
2019-04-03T07:14:37.781Z,98948.26
2019-04-03T07:15:42.017Z,98942.95
2019-04-03T07:16:46.263Z,98931.52
2019-04-03T07:17:51.649Z,98946.58
2019-04-03T07:18:55.836Z,98949.70
2019-04-03T07:20:12.519Z,98956.23
2019-04-03T07:21:06.185Z,98952.04
2019-04-03T07:22:11.463Z,98956.86
2019-04-03T07:23:15.684Z,98952.72
2019-04-03T07:24:20.168Z,98949.87
2019-04-03T07:25:24.799Z,98955.52
2019-04-03T07:26:28.953Z,98954.51
2019-04-03T07:27:34.874Z,98951.45
2019-04-03T07:28:41.633Z,98956.09
2019-04-03T07:29:45.054Z,98959.72
2019-04-03T07:30:52.360Z,98958.16
2019-04-03T07:31:55.723Z,98952.56
2019-04-03T07:33:00.078Z,98952.88
2019-04-03T07:34:04.260Z,98957.58
2019-04-03T07:35:10.110Z,98963.23
2019-04-03T07:36:14.413Z,98959.09
2019-04-03T07:37:20.038Z,98960.55
2019-04-03T07:38:24.650Z,98956.49
2019-04-03T07:39:28.855Z,98958.33
2019-04-03T07:40:33.278Z,98947.41
2019-04-03T07:41:40.430Z,98946.02
2019-04-03T07:42:43.779Z,98959.28
2019-04-03T07:43:48.344Z,98959.55
2019-04-03T07:44:52.538Z,98961.32
2019-04-03T07:45:56.677Z,98956.23
2019-04-03T07:47:03.347Z,98961.12
2019-04-03T07:48:07.097Z,98966.83
2019-04-03T07:49:13.798Z,98958.88
2019-04-03T07:50:17.299Z,98966.05
2019-04-03T07:51:21.538Z,98954.87
2019-04-03T07:52:25.934Z,98952.38
2019-04-03T07:53:30.138Z,98935.16
2019-04-03T07:54:34.304Z,98950.16
2019-04-03T07:55:38.476Z,98952.34
2019-04-03T07:56:43.164Z,98958.08
2019-04-03T07:57:47.640Z,98963.20
2019-04-03T07:58:51.861Z,98964.31
2019-04-03T07:59:56.112Z,98964.02
2019-04-03T08:01:00.263Z,98967.28
2019-04-03T08:02:05.332Z,98960.45
2019-04-03T08:03:09.535Z,98971.73
2019-04-03T08:04:15.838Z,98969.14
2019-04-03T08:05:22.294Z,98972.90
2019-04-03T08:06:26.746Z,98978.00
2019-04-03T08:07:30.873Z,98983.09
2019-04-03T08:08:35.875Z,98980.77
2019-04-03T08:09:40.186Z,98999.62
2019-04-03T08:10:44.828Z,98986.53
2019-04-03T08:11:49.203Z,98990.59
2019-04-03T08:12:53.374Z,98988.89
2019-04-03T08:13:57.839Z,98988.50
2019-04-03T08:15:02.036Z,98993.15
2019-04-03T08:16:06.194Z,98980.89
2019-04-03T08:17:10.367Z,98986.53
2019-04-03T08:18:14.532Z,98995.06
2019-04-03T08:19:18.813Z,98997.29
2019-04-03T08:20:24.031Z,98996.64
2019-04-03T08:21:30.481Z,98998.81
2019-04-03T08:22:35.856Z,98993.79
2019-04-03T08:23:42.915Z,99001.61
2019-04-03T08:24:47.560Z,99001.61
2019-04-03T08:25:57.330Z,98998.55
2019-04-03T08:27:00.374Z,98997.92
2019-04-03T08:28:05.233Z,98995.36
2019-04-03T08:29:09.383Z,98998.39
2019-04-03T08:30:13.923Z,98999.55
2019-04-03T08:31:19.775Z,99004.58
2019-04-03T08:32:24.209Z,99000.11
2019-04-03T08:33:28.388Z,99001.21
2019-04-03T08:34:38.255Z,98997.88
2019-04-03T08:35:43.127Z,98999.79
2019-04-03T08:36:47.529Z,99000.36
2019-04-03T08:37:51.678Z,99005.41
2019-04-03T08:38:55.871Z,99001.70
2019-04-03T08:40:00.036Z,98997.88
2019-04-03T08:41:04.812Z,99007.04
2019-04-03T08:42:09.207Z,99009.37
2019-04-03T08:43:13.455Z,99009.28
2019-04-03T08:44:18.239Z,99007.31
2019-04-03T08:45:23.771Z,99005.48
2019-04-03T08:46:27.951Z,99009.32
2019-04-03T08:47:32.288Z,99008.06
2019-04-03T08:48:36.448Z,99016.20
2019-04-03T08:49:40.957Z,99019.56
2019-04-03T08:50:45.157Z,99017.48
2019-04-03T08:51:49.327Z,99014.66
2019-04-03T08:52:53.519Z,99022.05
2019-04-03T08:53:58.299Z,99017.85
2019-04-03T08:55:06.645Z,99024.78
2019-04-03T08:56:10.920Z,99029.98
2019-04-03T08:57:15.046Z,99031.27
2019-04-03T08:58:20.969Z,99021.42
2019-04-03T08:59:28.777Z,99023.33
2019-04-03T09:00:34.950Z,99030.05
2019-04-03T09:01:39.412Z,99035.91
2019-04-03T09:02:44.115Z,99037.29
2019-04-03T09:03:48.779Z,99037.55
2019-04-03T09:04:53.031Z,99037.55
2019-04-03T09:05:57.423Z,99033.75
2019-04-03T09:07:06.511Z,99034.81
2019-04-03T09:08:10.828Z,99035.88
2019-04-03T09:09:15.044Z,99031.63
2019-04-03T09:10:19.492Z,99031.32
2019-04-03T09:11:23.677Z,99028.01
2019-04-03T09:12:28.109Z,99031.89
2019-04-03T09:13:32.411Z,99036.66
2019-04-03T09:14:36.537Z,99035.52
2019-04-03T09:15:40.773Z,99032.77
2019-04-03T09:16:44.939Z,99035.77
2019-04-03T09:17:49.160Z,99032.09
2019-04-03T09:18:53.550Z,99036.91
2019-04-03T09:19:57.764Z,99043.02
2019-04-03T09:21:01.939Z,99039.91
2019-04-03T09:22:06.346Z,99031.84
2019-04-03T09:23:11.513Z,99034.63
2019-04-03T09:24:15.878Z,99038.00
2019-04-03T09:25:20.499Z,99036.55
2019-04-03T09:26:24.804Z,99033.80
2019-04-03T09:27:28.972Z,99036.73
2019-04-03T09:28:33.286Z,99036.48
2019-04-03T09:29:37.473Z,99047.22
2019-04-03T09:30:41.704Z,99047.79
2019-04-03T09:31:46.227Z,99041.63
2019-04-03T09:32:53.750Z,99044.22
2019-04-03T09:33:58.642Z,99039.97
2019-04-03T09:35:02.971Z,99036.38
2019-04-03T09:36:07.138Z,99038.00
2019-04-03T09:37:11.349Z,99039.89
2019-04-03T09:38:15.659Z,99033.94
2019-04-03T09:39:21.734Z,99038.91
2019-04-03T09:40:25.896Z,99044.76
2019-04-03T09:41:30.177Z,99041.96
2019-04-03T09:42:34.387Z,99036.34
2019-04-03T09:43:39.922Z,99036.53
2019-04-03T09:44:44.315Z,99037.98
2019-04-03T09:45:48.550Z,99036.84
2019-04-03T09:46:53.097Z,99034.25
2019-04-03T09:47:57.257Z,99036.27
2019-04-03T09:49:01.428Z,99030.89
2019-04-03T09:50:07.574Z,99033.94
2019-04-03T09:51:12.081Z,99038.34
2019-04-03T09:52:16.572Z,99036.66
2019-04-03T09:53:20.737Z,99033.81
2019-04-03T09:54:28.789Z,99029.88
2019-04-03T09:55:36.242Z,99035.83
2019-04-03T09:56:54.907Z,99026.70
2019-04-03T09:57:44.831Z,99022.34
2019-04-03T09:58:49.499Z,99026.18
2019-04-03T09:59:54.994Z,99022.09
2019-04-03T10:00:59.100Z,99031.58
2019-04-03T10:02:05.948Z,99017.33
2019-04-03T10:03:10.112Z,99029.48
2019-04-03T10:04:14.664Z,99030.31
2019-04-03T10:05:18.816Z,99028.86
2019-04-03T10:06:24.287Z,99025.50
2019-04-03T10:07:30.973Z,99033.58
2019-04-03T10:08:34.383Z,99034.64
2019-04-03T10:09:39.192Z,99034.89
2019-04-03T10:10:44.968Z,99031.59
2019-04-03T10:11:51.538Z,99031.89
2019-04-03T10:12:55.368Z,99026.82
2019-04-03T10:13:59.561Z,99028.48
2019-04-03T10:15:09.027Z,99035.27
2019-04-03T10:16:16.135Z,99033.58
2019-04-03T10:17:21.556Z,99041.42
2019-04-03T10:18:28.653Z,99036.92
2019-04-03T10:19:34.574Z,99041.76
2019-04-03T10:20:38.775Z,99039.53
2019-04-03T10:21:43.095Z,99033.48
2019-04-03T10:22:47.403Z,99024.73
2019-04-03T10:23:51.547Z,99021.86
2019-04-03T10:24:59.403Z,99020.09
2019-04-03T10:26:02.596Z,99017.03
2019-04-03T10:27:07.152Z,99005.28
2019-04-03T10:28:13.658Z,99005.80
2019-04-03T10:29:19.664Z,99004.14
2019-04-03T10:30:24.336Z,99004.72
2019-04-03T10:31:28.508Z,99004.72
2019-04-03T10:32:32.696Z,99003.83
2019-04-03T10:33:36.862Z,98998.87
2019-04-03T10:34:43.657Z,99001.42
2019-04-03T10:35:47.939Z,99006.17
2019-04-03T10:36:52.105Z,98997.73
2019-04-03T10:37:56.384Z,98997.21
2019-04-03T10:39:00.593Z,98996.07
2019-04-03T10:40:08.032Z,98991.11
2019-04-03T10:41:12.252Z,98989.42
2019-04-03T10:42:16.505Z,98993.84
2019-04-03T10:43:21.026Z,98998.04
2019-04-03T10:44:25.304Z,98994.73
2019-04-03T10:45:29.434Z,99001.97
2019-04-03T10:46:33.779Z,99003.45
2019-04-03T10:47:42.378Z,99003.12
2019-04-03T10:48:43.822Z,99002.05
2019-04-03T10:49:48.335Z,98997.03
2019-04-03T10:50:52.448Z,98997.21
2019-04-03T10:51:56.793Z,98998.81
2019-04-03T10:53:01.153Z,98999.33
2019-04-03T10:54:05.294Z,99002.37
2019-04-03T10:55:09.545Z,98993.14
2019-04-03T10:56:13.713Z,99003.78
2019-04-03T10:57:18.001Z,98999.33
2019-04-03T10:58:22.219Z,99004.60
2019-04-03T10:59:26.960Z,99000.41
2019-04-03T11:00:31.283Z,98994.53
2019-04-03T11:01:35.711Z,98994.36
2019-04-03T11:02:40.185Z,98996.53
2019-04-03T11:03:44.327Z,98989.02
2019-04-03T11:04:48.601Z,98980.46
2019-04-03T11:05:52.983Z,98975.75
2019-04-03T11:06:57.220Z,98975.16
2019-04-03T11:08:01.579Z,98955.84
2019-04-03T11:09:07.718Z,98954.39
2019-04-03T11:10:11.989Z,98963.86
2019-04-03T11:11:16.263Z,98957.13
2019-04-03T11:12:20.506Z,98963.23
2019-04-03T11:13:24.867Z,98962.47
2019-04-03T11:14:29.276Z,98965.75
2019-04-03T11:15:33.672Z,98964.86
2019-04-03T11:16:39.153Z,98961.73
2019-04-03T11:17:43.673Z,98964.20
2019-04-03T11:18:58.030Z,98960.13
2019-04-03T11:19:53.934Z,98960.33
2019-04-03T11:20:58.383Z,98960.91
2019-04-03T11:22:02.949Z,98965.16
2019-04-03T11:23:08.601Z,98971.03
2019-04-03T11:24:13.425Z,98977.99
2019-04-03T11:25:17.562Z,98977.05
2019-04-03T11:26:24.017Z,98974.00
2019-04-03T11:27:40.875Z,98973.68
2019-04-03T11:28:36.980Z,98973.37
2019-04-03T11:29:41.900Z,98970.57
2019-04-03T11:30:45.251Z,98964.66
2019-04-03T11:31:49.620Z,98962.69
2019-04-03T11:32:53.920Z,98963.49
2019-04-03T11:33:58.414Z,98960.78
2019-04-03T11:35:02.880Z,98970.12
2019-04-03T11:36:07.039Z,98979.39
2019-04-03T11:37:11.195Z,98974.88
2019-04-03T11:38:25.707Z,98983.27
2019-04-03T11:39:22.046Z,98975.51
2019-04-03T11:40:26.175Z,98967.97
2019-04-03T11:41:30.418Z,98959.56
2019-04-03T11:42:34.654Z,98949.14
2019-04-03T11:43:40.823Z,98955.50
2019-04-03T11:44:45.179Z,98944.75
2019-04-03T11:45:49.634Z,98959.56
2019-04-03T11:46:53.783Z,98952.25
2019-04-03T11:47:57.949Z,98962.55
2019-04-03T11:49:03.755Z,98960.91
2019-04-03T11:50:08.461Z,98965.35
2019-04-03T11:51:13.062Z,98967.63
2019-04-03T11:52:17.396Z,98963.06
2019-04-03T11:53:21.663Z,98966.89
2019-04-03T11:54:26.037Z,98964.06
2019-04-03T11:55:31.036Z,98964.58
2019-04-03T11:56:35.181Z,98960.06
2019-04-03T11:57:39.352Z,98966.48
2019-04-03T11:58:43.602Z,98964.52
2019-04-03T11:59:47.901Z,98953.59
2019-04-03T12:00:53.225Z,98950.78
2019-04-03T12:01:57.639Z,98951.30
2019-04-03T12:03:02.529Z,98955.62
2019-04-03T12:04:07.009Z,98947.42
2019-04-03T12:05:14.748Z,98952.64
2019-04-03T12:06:19.678Z,98959.86
2019-04-03T12:07:25.110Z,98960.69
2019-04-03T12:08:29.482Z,98962.59
2019-04-03T12:09:33.757Z,98959.48
2019-04-03T12:10:38.125Z,98955.16
2019-04-03T12:11:42.303Z,98946.77
2019-04-03T12:12:49.258Z,98945.59
2019-04-03T12:13:53.473Z,98938.28
2019-04-03T12:14:57.640Z,98940.28
2019-04-03T12:16:02.095Z,98946.06
2019-04-03T12:17:06.257Z,98933.13
2019-04-03T12:18:10.804Z,98944.50
2019-04-03T12:19:17.717Z,98946.12
2019-04-03T12:20:21.881Z,98940.47
2019-04-03T12:21:28.006Z,98944.34
2019-04-03T12:22:32.370Z,98937.87
2019-04-03T12:23:39.174Z,98943.45
2019-04-03T12:24:42.754Z,98937.04
2019-04-03T12:25:47.171Z,98939.01
2019-04-03T12:26:52.540Z,98940.59
2019-04-03T12:27:57.287Z,98932.08
2019-04-03T12:29:01.548Z,98929.22
2019-04-03T12:30:08.040Z,98933.03
2019-04-03T12:31:12.229Z,98931.80
2019-04-03T12:32:16.607Z,98925.24
2019-04-03T12:33:21.749Z,98928.27
2019-04-03T12:34:26.155Z,98929.98
2019-04-03T12:35:30.327Z,98934.45
2019-04-03T12:36:34.785Z,98942.28
2019-04-03T12:37:39.307Z,98945.87
2019-04-03T12:38:43.563Z,98945.81
2019-04-03T12:39:47.732Z,98939.64
2019-04-03T12:40:51.898Z,98937.36